sensor_id;sensor_type;location;lat;lon;timestamp;P1;durP1;ratioP1;P2;durP2;ratioP2
2404;SDS011;1213;43.206;27.922;2023-02-28T00:00:19;5.10;;;2.50;;
2404;SDS011;1213;43.206;27.922;2023-02-28T00:02:45;2.40;;;2.20;;
2404;SDS011;1213;43.206;27.922;2023-02-28T00:05:11;2.57;;;2.13;;
2404;SDS011;1213;43.206;27.922;2023-02-28T00:07:37;1.83;;;1.73;;
2404;SDS011;1213;43.206;27.922;2023-02-28T00:10:03;2.73;;;2.10;;
2404;SDS011;1213;43.206;27.922;2023-02-28T00:12:29;2.77;;;2.23;;
2404;SDS011;1213;43.206;27.922;2023-02-28T00:14:54;2.47;;;2.27;;
2404;SDS011;1213;43.206;27.922;2023-02-28T00:17:19;3.73;;;2.77;;
2404;SDS011;1213;43.206;27.922;2023-02-28T00:19:50;6.63;;;2.33;;
2404;SDS011;1213;43.206;27.922;2023-02-28T00:22:16;2.40;;;2.07;;
2404;SDS011;1213;43.206;27.922;2023-02-28T00:24:41;2.60;;;1.97;;
2404;SDS011;1213;43.206;27.922;2023-02-28T00:27:06;2.60;;;2.40;;
2404;SDS011;1213;43.206;27.922;2023-02-28T00:29:32;2.93;;;2.57;;
2404;SDS011;1213;43.206;27.922;2023-02-28T00:31:57;3.00;;;2.40;;
2404;SDS011;1213;43.206;27.922;2023-02-28T00:34:22;2.10;;;2.00;;
2404;SDS011;1213;43.206;27.922;2023-02-28T00:36:48;2.67;;;2.40;;
2404;SDS011;1213;43.206;27.922;2023-02-28T00:39:16;3.07;;;2.57;;
2404;SDS011;1213;43.206;27.922;2023-02-28T00:41:41;2.20;;;2.00;;
2404;SDS011;1213;43.206;27.922;2023-02-28T00:44:07;3.47;;;2.70;;
2404;SDS011;1213;43.206;27.922;2023-02-28T00:46:32;2.80;;;2.60;;
2404;SDS011;1213;43.206;27.922;2023-02-28T00:48:57;2.67;;;2.47;;
2404;SDS011;1213;43.206;27.922;2023-02-28T00:51:22;2.50;;;2.30;;
2404;SDS011;1213;43.206;27.922;2023-02-28T00:53:48;3.77;;;2.60;;
2404;SDS011;1213;43.206;27.922;2023-02-28T00:56:13;4.30;;;3.30;;
2404;SDS011;1213;43.206;27.922;2023-02-28T00:58:39;2.73;;;2.53;;
2404;SDS011;1213;43.206;27.922;2023-02-28T01:01:04;2.30;;;2.10;;
2404;SDS011;1213;43.206;27.922;2023-02-28T01:03:29;3.63;;;2.60;;
2404;SDS011;1213;43.206;27.922;2023-02-28T01:05:54;2.67;;;2.33;;
2404;SDS011;1213;43.206;27.922;2023-02-28T01:08:20;2.43;;;2.23;;
2404;SDS011;1213;43.206;27.922;2023-02-28T01:10:45;3.37;;;2.63;;
2404;SDS011;1213;43.206;27.922;2023-02-28T01:13:12;2.17;;;1.97;;
2404;SDS011;1213;43.206;27.922;2023-02-28T01:15:38;2.90;;;2.70;;
2404;SDS011;1213;43.206;27.922;2023-02-28T01:18:05;2.40;;;2.10;;
2404;SDS011;1213;43.206;27.922;2023-02-28T01:20:31;3.33;;;2.33;;
2404;SDS011;1213;43.206;27.922;2023-02-28T01:22:56;7.33;;;2.73;;
2404;SDS011;1213;43.206;27.922;2023-02-28T01:25:21;2.40;;;2.20;;
2404;SDS011;1213;43.206;27.922;2023-02-28T01:27:47;2.83;;;2.30;;
2404;SDS011;1213;43.206;27.922;2023-02-28T01:30:12;2.20;;;2.00;;
2404;SDS011;1213;43.206;27.922;2023-02-28T01:32:37;3.90;;;2.33;;
2404;SDS011;1213;43.206;27.922;2023-02-28T01:35:03;2.20;;;2.00;;
2404;SDS011;1213;43.206;27.922;2023-02-28T01:37:28;3.00;;;2.23;;
2404;SDS011;1213;43.206;27.922;2023-02-28T01:39:53;3.20;;;3.00;;
2404;SDS011;1213;43.206;27.922;2023-02-28T01:42:18;2.93;;;2.50;;
2404;SDS011;1213;43.206;27.922;2023-02-28T01:47:21;3.33;;;3.03;;
2404;SDS011;1213;43.206;27.922;2023-02-28T01:49:47;4.17;;;3.33;;
2404;SDS011;1213;43.206;27.922;2023-02-28T01:52:13;3.97;;;3.00;;
2404;SDS011;1213;43.206;27.922;2023-02-28T01:54:43;4.47;;;4.00;;
2404;SDS011;1213;43.206;27.922;2023-02-28T01:57:11;3.50;;;3.20;;
2404;SDS011;1213;43.206;27.922;2023-02-28T02:02:19;3.00;;;2.80;;
2404;SDS011;1213;43.206;27.922;2023-02-28T02:05:03;3.00;;;2.77;;
2404;SDS011;1213;43.206;27.922;2023-02-28T02:07:32;4.17;;;3.50;;
2404;SDS011;1213;43.206;27.922;2023-02-28T02:10:20;5.37;;;3.13;;
2404;SDS011;1213;43.206;27.922;2023-02-28T02:12:56;5.73;;;3.33;;
2404;SDS011;1213;43.206;27.922;2023-02-28T02:15:33;3.00;;;2.80;;
2404;SDS011;1213;43.206;27.922;2023-02-28T02:18:02;3.43;;;2.53;;
2404;SDS011;1213;43.206;27.922;2023-02-28T02:20:32;3.00;;;2.73;;
2404;SDS011;1213;43.206;27.922;2023-02-28T02:23:21;3.10;;;2.87;;
2404;SDS011;1213;43.206;27.922;2023-02-28T02:36:13;2.70;;;2.50;;
2404;SDS011;1213;43.206;27.922;2023-02-28T02:38:46;3.73;;;2.93;;
2404;SDS011;1213;43.206;27.922;2023-02-28T02:41:15;4.07;;;2.80;;
2404;SDS011;1213;43.206;27.922;2023-02-28T02:46:10;5.90;;;2.30;;
2404;SDS011;1213;43.206;27.922;2023-02-28T02:48:38;2.87;;;2.63;;
2404;SDS011;1213;43.206;27.922;2023-02-28T02:51:10;2.10;;;1.90;;
2404;SDS011;1213;43.206;27.922;2023-02-28T02:53:39;2.37;;;2.17;;
2404;SDS011;1213;43.206;27.922;2023-02-28T02:56:06;2.90;;;2.30;;
2404;SDS011;1213;43.206;27.922;2023-02-28T02:58:33;2.77;;;2.53;;
2404;SDS011;1213;43.206;27.922;2023-02-28T03:01:00;3.13;;;2.93;;
2404;SDS011;1213;43.206;27.922;2023-02-28T03:03:26;2.30;;;2.20;;
2404;SDS011;1213;43.206;27.922;2023-02-28T03:05:56;6.93;;;2.63;;
2404;SDS011;1213;43.206;27.922;2023-02-28T03:08:22;2.30;;;2.10;;
2404;SDS011;1213;43.206;27.922;2023-02-28T03:11:12;2.43;;;2.23;;
2404;SDS011;1213;43.206;27.922;2023-02-28T03:16:34;2.53;;;2.03;;
2404;SDS011;1213;43.206;27.922;2023-02-28T03:26:43;2.37;;;2.17;;
2404;SDS011;1213;43.206;27.922;2023-02-28T03:29:23;2.67;;;2.47;;
2404;SDS011;1213;43.206;27.922;2023-02-28T03:32:00;2.07;;;1.87;;
2404;SDS011;1213;43.206;27.922;2023-02-28T03:34:30;2.17;;;1.97;;
2404;SDS011;1213;43.206;27.922;2023-02-28T03:36:59;1.83;;;1.73;;
2404;SDS011;1213;43.206;27.922;2023-02-28T03:47:15;2.00;;;1.90;;
2404;SDS011;1213;43.206;27.922;2023-02-28T03:52:16;2.60;;;2.23;;
2404;SDS011;1213;43.206;27.922;2023-02-28T03:54:47;5.40;;;3.40;;
2404;SDS011;1213;43.206;27.922;2023-02-28T03:59:59;1.90;;;1.80;;
2404;SDS011;1213;43.206;27.922;2023-02-28T04:02:25;3.53;;;3.17;;
2404;SDS011;1213;43.206;27.922;2023-02-28T04:04:51;3.43;;;2.53;;
2404;SDS011;1213;43.206;27.922;2023-02-28T04:07:16;2.10;;;2.00;;
2404;SDS011;1213;43.206;27.922;2023-02-28T04:09:42;4.00;;;3.40;;
2404;SDS011;1213;43.206;27.922;2023-02-28T04:12:07;4.67;;;3.60;;
2404;SDS011;1213;43.206;27.922;2023-02-28T04:14:32;4.00;;;3.60;;
2404;SDS011;1213;43.206;27.922;2023-02-28T04:16:58;3.60;;;3.30;;
2404;SDS011;1213;43.206;27.922;2023-02-28T04:19:23;3.60;;;2.07;;
2404;SDS011;1213;43.206;27.922;2023-02-28T04:21:49;3.63;;;3.20;;
2404;SDS011;1213;43.206;27.922;2023-02-28T04:24:16;3.67;;;3.30;;
2404;SDS011;1213;43.206;27.922;2023-02-28T04:26:42;3.80;;;3.23;;
2404;SDS011;1213;43.206;27.922;2023-02-28T04:29:11;3.40;;;3.13;;
2404;SDS011;1213;43.206;27.922;2023-02-28T04:31:37;3.50;;;3.20;;
2404;SDS011;1213;43.206;27.922;2023-02-28T04:34:02;4.07;;;2.70;;
2404;SDS011;1213;43.206;27.922;2023-02-28T04:36:28;5.03;;;3.23;;
2404;SDS011;1213;43.206;27.922;2023-02-28T04:38:54;3.50;;;3.17;;
2404;SDS011;1213;43.206;27.922;2023-02-28T04:41:19;6.30;;;3.17;;
2404;SDS011;1213;43.206;27.922;2023-02-28T04:43:45;5.10;;;3.50;;
2404;SDS011;1213;43.206;27.922;2023-02-28T04:46:10;3.70;;;3.40;;
2404;SDS011;1213;43.206;27.922;2023-02-28T04:48:37;4.57;;;3.47;;
2404;SDS011;1213;43.206;27.922;2023-02-28T04:51:03;5.80;;;3.80;;
2404;SDS011;1213;43.206;27.922;2023-02-28T04:53:29;3.77;;;3.00;;
2404;SDS011;1213;43.206;27.922;2023-02-28T04:55:55;4.33;;;3.53;;
2404;SDS011;1213;43.206;27.922;2023-02-28T04:58:20;5.13;;;3.80;;
2404;SDS011;1213;43.206;27.922;2023-02-28T05:00:48;4.33;;;3.60;;
2404;SDS011;1213;43.206;27.922;2023-02-28T05:03:13;11.60;;;4.10;;
2404;SDS011;1213;43.206;27.922;2023-02-28T05:05:38;4.10;;;3.73;;
2404;SDS011;1213;43.206;27.922;2023-02-28T05:08:04;4.43;;;3.73;;
2404;SDS011;1213;43.206;27.922;2023-02-28T05:10:30;5.30;;;4.07;;
2404;SDS011;1213;43.206;27.922;2023-02-28T05:12:55;6.83;;;3.90;;
2404;SDS011;1213;43.206;27.922;2023-02-28T05:15:20;5.30;;;4.27;;
2404;SDS011;1213;43.206;27.922;2023-02-28T05:17:46;14.17;;;5.73;;
2404;SDS011;1213;43.206;27.922;2023-02-28T05:20:11;13.40;;;4.20;;
2404;SDS011;1213;43.206;27.922;2023-02-28T05:22:38;5.63;;;4.97;;
2404;SDS011;1213;43.206;27.922;2023-02-28T05:25:04;10.10;;;5.67;;
2404;SDS011;1213;43.206;27.922;2023-02-28T05:27:30;9.40;;;6.00;;
2404;SDS011;1213;43.206;27.922;2023-02-28T05:29:55;12.70;;;6.57;;
2404;SDS011;1213;43.206;27.922;2023-02-28T05:32:21;7.73;;;4.80;;
2404;SDS011;1213;43.206;27.922;2023-02-28T05:34:46;8.10;;;5.40;;
2404;SDS011;1213;43.206;27.922;2023-02-28T05:37:12;15.60;;;5.40;;
2404;SDS011;1213;43.206;27.922;2023-02-28T05:39:38;6.77;;;5.00;;
2404;SDS011;1213;43.206;27.922;2023-02-28T05:42:04;5.40;;;4.10;;
2404;SDS011;1213;43.206;27.922;2023-02-28T05:44:29;5.50;;;4.77;;
2404;SDS011;1213;43.206;27.922;2023-02-28T05:46:54;7.90;;;4.93;;
2404;SDS011;1213;43.206;27.922;2023-02-28T05:49:20;9.27;;;5.70;;
2404;SDS011;1213;43.206;27.922;2023-02-28T05:51:45;6.93;;;5.20;;
2404;SDS011;1213;43.206;27.922;2023-02-28T05:54:10;7.70;;;5.07;;
2404;SDS011;1213;43.206;27.922;2023-02-28T05:56:36;9.33;;;5.73;;
2404;SDS011;1213;43.206;27.922;2023-02-28T05:59:03;7.43;;;5.30;;
2404;SDS011;1213;43.206;27.922;2023-02-28T06:01:36;13.00;;;5.57;;
2404;SDS011;1213;43.206;27.922;2023-02-28T06:04:02;11.30;;;6.60;;
2404;SDS011;1213;43.206;27.922;2023-02-28T06:06:28;9.20;;;6.13;;
2404;SDS011;1213;43.206;27.922;2023-02-28T06:08:54;9.30;;;5.50;;
2404;SDS011;1213;43.206;27.922;2023-02-28T06:11:19;9.00;;;4.73;;
2404;SDS011;1213;43.206;27.922;2023-02-28T06:13:45;9.40;;;5.00;;
2404;SDS011;1213;43.206;27.922;2023-02-28T06:16:10;14.73;;;6.70;;
2404;SDS011;1213;43.206;27.922;2023-02-28T06:18:36;11.60;;;5.87;;
2404;SDS011;1213;43.206;27.922;2023-02-28T06:21:02;16.90;;;10.40;;
2404;SDS011;1213;43.206;27.922;2023-02-28T06:23:27;22.70;;;9.30;;
2404;SDS011;1213;43.206;27.922;2023-02-28T06:25:53;10.10;;;7.20;;
2404;SDS011;1213;43.206;27.922;2023-02-28T06:28:34;10.00;;;5.50;;
2404;SDS011;1213;43.206;27.922;2023-02-28T06:31:23;9.13;;;4.97;;
2404;SDS011;1213;43.206;27.922;2023-02-28T06:33:56;9.20;;;6.03;;
2404;SDS011;1213;43.206;27.922;2023-02-28T06:42:44;12.17;;;5.67;;
2404;SDS011;1213;43.206;27.922;2023-02-28T06:48:34;6.60;;;5.37;;
2404;SDS011;1213;43.206;27.922;2023-02-28T06:51:16;8.80;;;6.10;;
2404;SDS011;1213;43.206;27.922;2023-02-28T06:53:42;9.20;;;6.23;;
2404;SDS011;1213;43.206;27.922;2023-02-28T06:58:53;10.80;;;5.20;;
2404;SDS011;1213;43.206;27.922;2023-02-28T07:01:36;7.37;;;5.87;;
2404;SDS011;1213;43.206;27.922;2023-02-28T07:04:05;6.93;;;4.87;;
2404;SDS011;1213;43.206;27.922;2023-02-28T07:06:51;14.13;;;6.70;;
2404;SDS011;1213;43.206;27.922;2023-02-28T07:09:17;12.33;;;6.03;;
2404;SDS011;1213;43.206;27.922;2023-02-28T07:11:44;6.73;;;4.97;;
2404;SDS011;1213;43.206;27.922;2023-02-28T07:14:09;7.97;;;5.80;;
2404;SDS011;1213;43.206;27.922;2023-02-28T07:16:35;6.60;;;4.80;;
2404;SDS011;1213;43.206;27.922;2023-02-28T07:19:00;6.83;;;5.00;;
2404;SDS011;1213;43.206;27.922;2023-02-28T07:21:25;7.00;;;5.43;;
2404;SDS011;1213;43.206;27.922;2023-02-28T07:23:51;11.27;;;6.67;;
2404;SDS011;1213;43.206;27.922;2023-02-28T07:26:17;12.63;;;7.00;;
2404;SDS011;1213;43.206;27.922;2023-02-28T07:28:43;9.40;;;5.00;;
2404;SDS011;1213;43.206;27.922;2023-02-28T07:31:09;5.77;;;4.73;;
2404;SDS011;1213;43.206;27.922;2023-02-28T07:33:35;15.23;;;5.77;;
2404;SDS011;1213;43.206;27.922;2023-02-28T07:36:01;7.10;;;4.83;;
2404;SDS011;1213;43.206;27.922;2023-02-28T07:38:26;8.60;;;4.83;;
2404;SDS011;1213;43.206;27.922;2023-02-28T07:40:52;6.83;;;4.70;;
2404;SDS011;1213;43.206;27.922;2023-02-28T07:43:20;9.57;;;5.63;;
2404;SDS011;1213;43.206;27.922;2023-02-28T07:46:04;5.87;;;4.10;;
2404;SDS011;1213;43.206;27.922;2023-02-28T07:48:32;6.73;;;5.30;;
2404;SDS011;1213;43.206;27.922;2023-02-28T07:50:58;7.00;;;4.47;;
2404;SDS011;1213;43.206;27.922;2023-02-28T07:53:23;4.20;;;3.20;;
2404;SDS011;1213;43.206;27.922;2023-02-28T07:55:49;5.00;;;4.17;;
2404;SDS011;1213;43.206;27.922;2023-02-28T07:58:14;7.70;;;4.20;;
2404;SDS011;1213;43.206;27.922;2023-02-28T08:00:40;4.83;;;3.80;;
2404;SDS011;1213;43.206;27.922;2023-02-28T08:03:05;4.37;;;3.80;;
2404;SDS011;1213;43.206;27.922;2023-02-28T08:05:30;6.60;;;4.47;;
2404;SDS011;1213;43.206;27.922;2023-02-28T08:07:56;7.43;;;4.47;;
2404;SDS011;1213;43.206;27.922;2023-02-28T08:10:21;6.43;;;5.33;;
2404;SDS011;1213;43.206;27.922;2023-02-28T08:12:46;4.17;;;3.57;;
2404;SDS011;1213;43.206;27.922;2023-02-28T08:15:12;4.47;;;3.87;;
2404;SDS011;1213;43.206;27.922;2023-02-28T08:17:37;5.30;;;2.97;;
2404;SDS011;1213;43.206;27.922;2023-02-28T08:20:03;4.00;;;3.13;;
2404;SDS011;1213;43.206;27.922;2023-02-28T08:22:29;5.90;;;3.10;;
2404;SDS011;1213;43.206;27.922;2023-02-28T08:24:54;6.27;;;5.03;;
2404;SDS011;1213;43.206;27.922;2023-02-28T08:27:19;4.20;;;3.10;;
2404;SDS011;1213;43.206;27.922;2023-02-28T08:29:45;5.40;;;4.40;;
2404;SDS011;1213;43.206;27.922;2023-02-28T08:32:10;4.23;;;3.80;;
2404;SDS011;1213;43.206;27.922;2023-02-28T08:34:35;5.43;;;3.33;;
2404;SDS011;1213;43.206;27.922;2023-02-28T08:37:03;5.57;;;3.70;;
2404;SDS011;1213;43.206;27.922;2023-02-28T08:39:28;5.83;;;3.97;;
2404;SDS011;1213;43.206;27.922;2023-02-28T08:41:53;5.87;;;4.00;;
2404;SDS011;1213;43.206;27.922;2023-02-28T08:44:19;6.97;;;5.33;;
2404;SDS011;1213;43.206;27.922;2023-02-28T08:46:44;5.50;;;4.10;;
2404;SDS011;1213;43.206;27.922;2023-02-28T08:49:10;6.20;;;4.63;;
2404;SDS011;1213;43.206;27.922;2023-02-28T08:51:35;6.67;;;5.00;;
2404;SDS011;1213;43.206;27.922;2023-02-28T08:54:01;4.73;;;4.33;;
2404;SDS011;1213;43.206;27.922;2023-02-28T08:56:26;7.80;;;4.70;;
2404;SDS011;1213;43.206;27.922;2023-02-28T08:58:53;4.70;;;3.83;;
2404;SDS011;1213;43.206;27.922;2023-02-28T09:01:21;9.20;;;5.00;;
2404;SDS011;1213;43.206;27.922;2023-02-28T09:03:47;5.57;;;4.57;;
2404;SDS011;1213;43.206;27.922;2023-02-28T09:06:16;6.90;;;3.90;;
2404;SDS011;1213;43.206;27.922;2023-02-28T09:08:42;5.10;;;3.90;;
2404;SDS011;1213;43.206;27.922;2023-02-28T09:11:08;7.27;;;3.23;;
2404;SDS011;1213;43.206;27.922;2023-02-28T09:13:33;6.03;;;4.10;;
2404;SDS011;1213;43.206;27.922;2023-02-28T09:15:59;6.20;;;3.80;;
2404;SDS011;1213;43.206;27.922;2023-02-28T09:18:25;3.93;;;3.37;;
2404;SDS011;1213;43.206;27.922;2023-02-28T09:20:51;4.17;;;3.03;;
2404;SDS011;1213;43.206;27.922;2023-02-28T09:23:16;4.90;;;4.47;;
2404;SDS011;1213;43.206;27.922;2023-02-28T09:25:48;4.77;;;3.03;;
2404;SDS011;1213;43.206;27.922;2023-02-28T09:28:14;5.32;;;3.83;;
2404;SDS011;1213;43.206;27.922;2023-02-28T09:30:41;5.03;;;4.37;;
2404;SDS011;1213;43.206;27.922;2023-02-28T09:33:06;4.27;;;3.87;;
2404;SDS011;1213;43.206;27.922;2023-02-28T09:35:32;5.53;;;4.57;;
2404;SDS011;1213;43.206;27.922;2023-02-28T09:37:57;4.30;;;3.27;;
2404;SDS011;1213;43.206;27.922;2023-02-28T09:40:23;6.70;;;4.30;;
2404;SDS011;1213;43.206;27.922;2023-02-28T09:42:50;5.90;;;3.90;;
2404;SDS011;1213;43.206;27.922;2023-02-28T09:45:21;4.53;;;3.90;;
2404;SDS011;1213;43.206;27.922;2023-02-28T09:47:47;7.95;;;6.10;;
2404;SDS011;1213;43.206;27.922;2023-02-28T09:50:18;4.70;;;3.83;;
2404;SDS011;1213;43.206;27.922;2023-02-28T09:52:46;5.07;;;4.37;;
2404;SDS011;1213;43.206;27.922;2023-02-28T09:57:41;4.90;;;3.77;;
2404;SDS011;1213;43.206;27.922;2023-02-28T10:00:15;10.37;;;4.50;;
2404;SDS011;1213;43.206;27.922;2023-02-28T10:05:11;10.23;;;4.30;;
2404;SDS011;1213;43.206;27.922;2023-02-28T10:07:50;4.53;;;4.10;;
2404;SDS011;1213;43.206;27.922;2023-02-28T10:12:45;7.30;;;4.20;;
2404;SDS011;1213;43.206;27.922;2023-02-28T10:15:15;7.00;;;3.80;;
2404;SDS011;1213;43.206;27.922;2023-02-28T10:17:42;4.13;;;3.33;;
2404;SDS011;1213;43.206;27.922;2023-02-28T10:20:11;4.53;;;3.80;;
2404;SDS011;1213;43.206;27.922;2023-02-28T10:22:44;3.63;;;3.33;;
2404;SDS011;1213;43.206;27.922;2023-02-28T10:25:17;3.67;;;3.37;;
2404;SDS011;1213;43.206;27.922;2023-02-28T10:27:42;6.43;;;3.17;;
2404;SDS011;1213;43.206;27.922;2023-02-28T10:30:11;5.00;;;3.43;;
2404;SDS011;1213;43.206;27.922;2023-02-28T10:32:39;4.10;;;2.57;;
2404;SDS011;1213;43.206;27.922;2023-02-28T10:35:20;6.17;;;4.07;;
2404;SDS011;1213;43.206;27.922;2023-02-28T10:37:47;5.13;;;3.20;;
2404;SDS011;1213;43.206;27.922;2023-02-28T10:42:58;4.53;;;4.13;;
2404;SDS011;1213;43.206;27.922;2023-02-28T10:45:24;5.63;;;3.40;;
2404;SDS011;1213;43.206;27.922;2023-02-28T10:50:27;6.40;;;3.13;;
2404;SDS011;1213;43.206;27.922;2023-02-28T10:52:53;4.50;;;3.00;;
2404;SDS011;1213;43.206;27.922;2023-02-28T10:55:22;3.40;;;2.57;;
2404;SDS011;1213;43.206;27.922;2023-02-28T10:57:48;4.03;;;3.27;;
2404;SDS011;1213;43.206;27.922;2023-02-28T11:00:18;6.83;;;3.40;;
2404;SDS011;1213;43.206;27.922;2023-02-28T11:02:44;5.77;;;3.20;;
2404;SDS011;1213;43.206;27.922;2023-02-28T11:05:24;4.80;;;3.60;;
2404;SDS011;1213;43.206;27.922;2023-02-28T11:07:51;5.40;;;4.63;;
2404;SDS011;1213;43.206;27.922;2023-02-28T11:10:19;5.40;;;3.17;;
2404;SDS011;1213;43.206;27.922;2023-02-28T11:12:47;5.57;;;3.90;;
2404;SDS011;1213;43.206;27.922;2023-02-28T11:15:21;6.50;;;4.10;;
2404;SDS011;1213;43.206;27.922;2023-02-28T11:20:39;7.20;;;3.93;;
2404;SDS011;1213;43.206;27.922;2023-02-28T11:23:04;5.40;;;3.80;;
2404;SDS011;1213;43.206;27.922;2023-02-28T11:25:36;5.50;;;3.97;;
2404;SDS011;1213;43.206;27.922;2023-02-28T11:28:03;7.30;;;4.00;;
2404;SDS011;1213;43.206;27.922;2023-02-28T11:33:00;6.73;;;4.67;;
2404;SDS011;1213;43.206;27.922;2023-02-28T11:35:38;4.63;;;3.80;;
2404;SDS011;1213;43.206;27.922;2023-02-28T11:38:05;5.70;;;4.10;;
2404;SDS011;1213;43.206;27.922;2023-02-28T11:43:20;4.13;;;3.30;;
2404;SDS011;1213;43.206;27.922;2023-02-28T11:45:52;4.90;;;4.20;;
2404;SDS011;1213;43.206;27.922;2023-02-28T11:53:26;4.13;;;3.73;;
2404;SDS011;1213;43.206;27.922;2023-02-28T11:56:02;4.37;;;3.50;;
2404;SDS011;1213;43.206;27.922;2023-02-28T11:58:42;4.60;;;3.87;;
2404;SDS011;1213;43.206;27.922;2023-02-28T12:01:24;5.70;;;3.70;;
2404;SDS011;1213;43.206;27.922;2023-02-28T12:06:36;5.27;;;4.00;;
2404;SDS011;1213;43.206;27.922;2023-02-28T12:09:12;5.13;;;3.73;;
2404;SDS011;1213;43.206;27.922;2023-02-28T12:11:57;5.07;;;4.17;;
2404;SDS011;1213;43.206;27.922;2023-02-28T12:27:13;12.63;;;4.00;;
2404;SDS011;1213;43.206;27.922;2023-02-28T12:29:43;6.43;;;3.83;;
2404;SDS011;1213;43.206;27.922;2023-02-28T12:32:18;4.57;;;4.07;;
2404;SDS011;1213;43.206;27.922;2023-02-28T12:34:51;6.90;;;3.97;;
2404;SDS011;1213;43.206;27.922;2023-02-28T12:37:59;8.40;;;4.83;;
2404;SDS011;1213;43.206;27.922;2023-02-28T12:40:29;7.97;;;4.40;;
2404;SDS011;1213;43.206;27.922;2023-02-28T12:42:52;5.07;;;4.23;;
2404;SDS011;1213;43.206;27.922;2023-02-28T12:45:27;6.97;;;4.87;;
2404;SDS011;1213;43.206;27.922;2023-02-28T12:47:57;15.13;;;5.63;;
2404;SDS011;1213;43.206;27.922;2023-02-28T12:50:23;7.20;;;5.40;;
2404;SDS011;1213;43.206;27.922;2023-02-28T13:00:36;14.30;;;5.50;;
2404;SDS011;1213;43.206;27.922;2023-02-28T13:08:12;16.93;;;11.03;;
2404;SDS011;1213;43.206;27.922;2023-02-28T13:10:47;6.67;;;5.23;;
2404;SDS011;1213;43.206;27.922;2023-02-28T13:13:19;7.00;;;5.03;;
2404;SDS011;1213;43.206;27.922;2023-02-28T13:18:36;7.40;;;5.33;;
2404;SDS011;1213;43.206;27.922;2023-02-28T13:21:03;12.45;;;5.97;;
2404;SDS011;1213;43.206;27.922;2023-02-28T13:26:17;8.00;;;4.83;;
2404;SDS011;1213;43.206;27.922;2023-02-28T13:31:14;7.30;;;5.37;;
2404;SDS011;1213;43.206;27.922;2023-02-28T13:38:51;11.13;;;5.50;;
2404;SDS011;1213;43.206;27.922;2023-02-28T13:44:08;6.37;;;5.03;;
2404;SDS011;1213;43.206;27.922;2023-02-28T13:46:35;9.13;;;5.57;;
2404;SDS011;1213;43.206;27.922;2023-02-28T13:51:46;6.57;;;4.53;;
2404;SDS011;1213;43.206;27.922;2023-02-28T13:59:26;7.17;;;5.70;;
2404;SDS011;1213;43.206;27.922;2023-02-28T14:02:11;6.17;;;4.60;;
2404;SDS011;1213;43.206;27.922;2023-02-28T14:07:09;11.43;;;7.30;;
2404;SDS011;1213;43.206;27.922;2023-02-28T14:09:41;12.07;;;5.33;;
2404;SDS011;1213;43.206;27.922;2023-02-28T14:14:54;8.00;;;5.27;;
2404;SDS011;1213;43.206;27.922;2023-02-28T14:17:19;12.70;;;5.70;;
2404;SDS011;1213;43.206;27.922;2023-02-28T14:19:48;4.80;;;3.53;;
2404;SDS011;1213;43.206;27.922;2023-02-28T14:38:14;7.90;;;6.03;;
2404;SDS011;1213;43.206;27.922;2023-02-28T14:40:41;14.77;;;4.60;;
2404;SDS011;1213;43.206;27.922;2023-02-28T14:43:18;7.73;;;5.27;;
2404;SDS011;1213;43.206;27.922;2023-02-28T14:45:44;8.10;;;5.50;;
2404;SDS011;1213;43.206;27.922;2023-02-28T14:48:15;7.30;;;5.80;;
2404;SDS011;1213;43.206;27.922;2023-02-28T14:50:41;7.70;;;5.50;;
2404;SDS011;1213;43.206;27.922;2023-02-28T14:53:15;22.70;;;10.90;;
2404;SDS011;1213;43.206;27.922;2023-02-28T14:56:16;27.23;;;14.60;;
2404;SDS011;1213;43.206;27.922;2023-02-28T14:58:34;13.05;;;8.43;;
2404;SDS011;1213;43.206;27.922;2023-02-28T15:01:00;9.27;;;5.67;;
2404;SDS011;1213;43.206;27.922;2023-02-28T15:05:56;9.37;;;4.70;;
2404;SDS011;1213;43.206;27.922;2023-02-28T15:08:22;6.13;;;4.47;;
2404;SDS011;1213;43.206;27.922;2023-02-28T15:10:51;7.85;;;5.93;;
2404;SDS011;1213;43.206;27.922;2023-02-28T15:13:18;5.43;;;4.50;;
2404;SDS011;1213;43.206;27.922;2023-02-28T15:19:11;6.83;;;5.70;;
2404;SDS011;1213;43.206;27.922;2023-02-28T15:21:08;9.53;;;5.33;;
2404;SDS011;1213;43.206;27.922;2023-02-28T15:23:36;7.77;;;5.97;;
2404;SDS011;1213;43.206;27.922;2023-02-28T15:26:02;5.93;;;4.57;;
2404;SDS011;1213;43.206;27.922;2023-02-28T15:28:28;10.03;;;6.57;;
2404;SDS011;1213;43.206;27.922;2023-02-28T15:31:25;12.60;;;7.05;;
2404;SDS011;1213;43.206;27.922;2023-02-28T15:33:39;7.07;;;5.27;;
2404;SDS011;1213;43.206;27.922;2023-02-28T15:36:16;11.23;;;6.65;;
2404;SDS011;1213;43.206;27.922;2023-02-28T15:38:46;10.07;;;5.90;;
2404;SDS011;1213;43.206;27.922;2023-02-28T15:41:24;7.90;;;5.10;;
2404;SDS011;1213;43.206;27.922;2023-02-28T15:43:49;18.23;;;11.30;;
2404;SDS011;1213;43.206;27.922;2023-02-28T15:46:35;27.57;;;15.87;;
2404;SDS011;1213;43.206;27.922;2023-02-28T15:49:00;7.23;;;5.50;;
2404;SDS011;1213;43.206;27.922;2023-02-28T15:53:58;8.60;;;5.03;;
2404;SDS011;1213;43.206;27.922;2023-02-28T15:56:30;7.63;;;5.27;;
2404;SDS011;1213;43.206;27.922;2023-02-28T15:58:57;9.83;;;4.87;;
2404;SDS011;1213;43.206;27.922;2023-02-28T16:01:27;18.90;;;6.43;;
2404;SDS011;1213;43.206;27.922;2023-02-28T16:03:54;10.57;;;5.63;;
2404;SDS011;1213;43.206;27.922;2023-02-28T16:06:28;7.23;;;5.50;;
2404;SDS011;1213;43.206;27.922;2023-02-28T16:08:55;5.50;;;4.30;;
2404;SDS011;1213;43.206;27.922;2023-02-28T16:11:21;8.80;;;5.60;;
2404;SDS011;1213;43.206;27.922;2023-02-28T16:13:46;7.97;;;5.60;;
2404;SDS011;1213;43.206;27.922;2023-02-28T16:16:18;12.87;;;4.40;;
2404;SDS011;1213;43.206;27.922;2023-02-28T16:18:44;8.23;;;5.47;;
2404;SDS011;1213;43.206;27.922;2023-02-28T16:21:09;8.43;;;5.13;;
2404;SDS011;1213;43.206;27.922;2023-02-28T16:23:34;9.30;;;5.50;;
2404;SDS011;1213;43.206;27.922;2023-02-28T16:26:00;13.40;;;5.97;;
2404;SDS011;1213;43.206;27.922;2023-02-28T16:28:28;11.40;;;5.60;;
2404;SDS011;1213;43.206;27.922;2023-02-28T16:30:56;31.60;;;20.47;;
2404;SDS011;1213;43.206;27.922;2023-02-28T16:33:21;11.70;;;7.57;;
2404;SDS011;1213;43.206;27.922;2023-02-28T16:35:47;6.60;;;5.47;;
2404;SDS011;1213;43.206;27.922;2023-02-28T16:38:12;11.03;;;4.47;;
2404;SDS011;1213;43.206;27.922;2023-02-28T16:40:37;8.27;;;5.20;;
2404;SDS011;1213;43.206;27.922;2023-02-28T16:43:14;6.40;;;4.57;;
2404;SDS011;1213;43.206;27.922;2023-02-28T16:45:40;7.70;;;4.43;;
2404;SDS011;1213;43.206;27.922;2023-02-28T16:48:07;5.40;;;4.00;;
2404;SDS011;1213;43.206;27.922;2023-02-28T16:50:33;8.97;;;5.10;;
2404;SDS011;1213;43.206;27.922;2023-02-28T16:52:58;6.13;;;4.63;;
2404;SDS011;1213;43.206;27.922;2023-02-28T16:55:24;10.00;;;5.30;;
2404;SDS011;1213;43.206;27.922;2023-02-28T16:57:51;4.77;;;3.37;;
2404;SDS011;1213;43.206;27.922;2023-02-28T17:00:17;7.90;;;5.80;;
2404;SDS011;1213;43.206;27.922;2023-02-28T17:02:42;7.10;;;4.63;;
2404;SDS011;1213;43.206;27.922;2023-02-28T17:05:08;7.50;;;4.50;;
2404;SDS011;1213;43.206;27.922;2023-02-28T17:07:34;11.10;;;5.87;;
2404;SDS011;1213;43.206;27.922;2023-02-28T17:09:59;17.33;;;5.67;;
2404;SDS011;1213;43.206;27.922;2023-02-28T17:12:33;9.47;;;5.90;;
2404;SDS011;1213;43.206;27.922;2023-02-28T17:14:58;7.37;;;5.10;;
2404;SDS011;1213;43.206;27.922;2023-02-28T17:17:24;5.17;;;4.70;;
2404;SDS011;1213;43.206;27.922;2023-02-28T17:19:49;8.67;;;4.57;;
2404;SDS011;1213;43.206;27.922;2023-02-28T17:22:14;11.57;;;5.60;;
2404;SDS011;1213;43.206;27.922;2023-02-28T17:24:39;6.00;;;5.00;;
2404;SDS011;1213;43.206;27.922;2023-02-28T17:27:05;5.90;;;4.07;;
2404;SDS011;1213;43.206;27.922;2023-02-28T17:29:30;5.17;;;3.70;;
2404;SDS011;1213;43.206;27.922;2023-02-28T17:31:56;6.23;;;5.23;;
2404;SDS011;1213;43.206;27.922;2023-02-28T17:34:21;12.17;;;6.43;;
2404;SDS011;1213;43.206;27.922;2023-02-28T17:36:47;8.43;;;5.13;;
2404;SDS011;1213;43.206;27.922;2023-02-28T17:39:14;8.93;;;3.53;;
2404;SDS011;1213;43.206;27.922;2023-02-28T17:41:40;6.40;;;4.90;;
2404;SDS011;1213;43.206;27.922;2023-02-28T17:44:06;10.60;;;6.37;;